Time;durP1;ratioP1;P1;durP2;ratioP2;P2;SDS_P1;SDS_P2;PMS_P1;PMS_P2;Temp;Humidity;BMP_temperature;BMP_pressure;BME280_temperature;BME280_humidity;BME280_pressure;Samples;Min_cycle;Max_cycle;Signal;HPM_P1;HPM_P2
2023/04/30 00:00:51;;;;;;;2.17;1.00;;;24.40;49.00;;;;;;5040962;28;20382;-65
2023/04/30 00:03:17;;;;;;;1.73;0.90;;;24.40;49.00;;;;;;5037664;28;20055;-66
2023/04/30 00:05:42;;;;;;;1.83;1.00;;;24.40;49.00;;;;;;5039822;28;20131;-66
2023/04/30 00:08:08;;;;;;;1.63;1.00;;;24.40;49.00;;;;;;5039356;28;20099;-66
2023/04/30 00:10:33;;;;;;;2.45;1.10;;;24.40;49.10;;;;;;5035456;28;20037;-66
2023/04/30 00:12:59;;;;;;;1.90;1.10;;;24.40;49.10;;;;;;5039288;28;20068;-67
2023/04/30 00:15:25;;;;;;;2.08;1.30;;;24.40;49.20;;;;;;5038787;28;20025;-66
2023/04/30 00:17:52;;;;;;;2.20;1.00;;;24.30;49.20;;;;;;5039510;28;20052;-66
2023/04/30 00:20:17;;;;;;;2.25;1.10;;;24.30;49.10;;;;;;5038549;28;20071;-66
2023/04/30 00:22:43;;;;;;;2.35;1.17;;;24.30;49.10;;;;;;5039992;28;20037;-67
2023/04/30 00:25:08;;;;;;;2.58;1.10;;;24.30;49.10;;;;;;5040885;28;20033;-66
2023/04/30 00:27:34;;;;;;;1.60;1.10;;;24.30;49.10;;;;;;5038071;28;20106;-67
2023/04/30 00:30:00;;;;;;;2.35;1.23;;;24.30;49.10;;;;;;5036581;28;20045;-65
2023/04/30 00:32:25;;;;;;;1.90;1.00;;;24.30;49.10;;;;;;5038968;28;20116;-66
2023/04/30 00:34:51;;;;;;;1.67;0.93;;;24.30;49.10;;;;;;5037786;28;20029;-66
2023/04/30 00:37:16;;;;;;;1.95;0.93;;;24.30;49.10;;;;;;5038495;28;20393;-66
2023/04/30 00:39:42;;;;;;;1.88;1.00;;;24.30;49.10;;;;;;5041382;28;20025;-66
2023/04/30 00:42:08;;;;;;;2.33;1.20;;;24.30;49.10;;;;;;5035428;28;20087;-65
2023/04/30 00:44:33;;;;;;;2.22;1.23;;;24.20;49.00;;;;;;5039072;28;20029;-67
2023/04/30 00:46:59;;;;;;;1.70;1.00;;;24.20;49.00;;;;;;5038196;28;20021;-66
2023/04/30 00:49:25;;;;;;;2.67;1.30;;;24.20;49.00;;;;;;5039552;28;20100;-66
2023/04/30 00:51:51;;;;;;;3.25;1.30;;;24.20;49.10;;;;;;5039653;28;20081;-66
2023/04/30 00:54:19;;;;;;;2.67;1.20;;;24.20;49.10;;;;;;5040234;28;20029;-66
2023/04/30 00:56:45;;;;;;;2.08;1.10;;;24.20;49.00;;;;;;5040075;28;20030;-66
2023/04/30 00:59:12;;;;;;;2.17;1.00;;;24.20;49.00;;;;;;5038133;28;20025;-66
2023/04/30 01:01:38;;;;;;;2.17;1.20;;;24.20;49.00;;;;;;5037752;28;20393;-66
2023/04/30 01:04:04;;;;;;;2.33;1.13;;;24.10;49.00;;;;;;5036707;28;20025;-67
2023/04/30 01:06:30;;;;;;;2.40;1.00;;;24.10;49.00;;;;;;5039425;28;20116;-66
2023/04/30 01:08:57;;;;;;;2.33;1.20;;;24.10;49.00;;;;;;5039158;28;20030;-67
2023/04/30 01:11:33;;;;;;;1.83;1.05;;;24.10;49.00;;;;;;5035913;28;20029;-67
2023/04/30 01:14:03;;;;;;;1.90;1.00;;;24.10;49.00;;;;;;5039775;28;20025;-68
2023/04/30 01:16:35;;;;;;;2.35;1.15;;;24.10;49.50;;;;;;5037671;28;20469;-65
2023/04/30 01:19:38;;;;;;;2.13;1.10;;;24.10;49.00;;;;;;5038715;28;20151;-66
2023/04/30 01:22:06;;;;;;;2.88;1.13;;;24.10;49.00;;;;;;5040390;28;20021;-66
2023/04/30 01:24:52;;;;;;;1.65;0.95;;;24.10;49.00;;;;;;5035146;28;20025;-67
2023/04/30 01:28:00;;;;;;;1.90;1.02;;;24.00;48.90;;;;;;5037976;28;20397;-67
2023/04/30 01:30:27;;;;;;;1.67;0.98;;;24.10;49.00;;;;;;5036471;28;20025;-66
2023/04/30 01:32:52;;;;;;;2.20;1.10;;;24.00;48.90;;;;;;5036107;28;20029;-66
2023/04/30 01:35:18;;;;;;;2.50;1.13;;;24.00;48.90;;;;;;5037066;28;20414;-66
2023/04/30 01:37:47;;;;;;;1.80;1.20;;;24.00;48.90;;;;;;5039082;28;20119;-67
2023/04/30 01:40:39;;;;;;;2.75;1.30;;;24.00;49.00;;;;;;5038937;28;20124;-66
2023/04/30 01:43:26;;;;;;;2.00;1.10;;;24.00;48.90;;;;;;5036743;28;20032;-66
2023/04/30 01:46:27;;;;;;;1.90;1.10;;;23.90;48.90;;;;;;5037959;28;20033;-66
2023/04/30 01:49:41;;;;;;;1.65;1.00;;;24.00;49.00;;;;;;5036029;28;20059;-68
2023/04/30 01:52:42;;;;;;;1.65;1.00;;;23.90;48.90;;;;;;5037464;28;20068;-66
2023/04/30 01:55:13;;;;;;;1.75;1.00;;;23.90;48.90;;;;;;5032233;28;20037;-65
2023/04/30 01:57:46;;;;;;;2.03;1.15;;;23.90;48.90;;;;;;5036765;28;20072;-66
2023/04/30 02:00:13;;;;;;;1.95;0.77;;;23.90;48.90;;;;;;5069961;28;20120;-65
2023/04/30 02:02:39;;;;;;;1.67;1.10;;;23.90;48.90;;;;;;5037550;28;20444;-66
2023/04/30 02:05:06;;;;;;;2.28;1.33;;;23.90;48.90;;;;;;5034867;28;20103;-67
2023/04/30 02:07:43;;;;;;;1.73;0.98;;;23.90;48.90;;;;;;5038858;28;20040;-66
2023/04/30 02:10:10;;;;;;;1.80;1.00;;;23.80;48.90;;;;;;5038279;28;20412;-67
2023/04/30 02:12:36;;;;;;;1.92;1.00;;;23.80;48.90;;;;;;5037030;28;20204;-66
2023/04/30 02:15:03;;;;;;;2.90;1.00;;;23.80;48.90;;;;;;5036013;28;20199;-66
2023/04/30 02:17:30;;;;;;;2.10;1.10;;;23.80;49.00;;;;;;5040287;28;20017;-65
2023/04/30 02:19:55;;;;;;;1.92;1.00;;;23.80;48.90;;;;;;5038528;28;20021;-68
2023/04/30 02:22:21;;;;;;;1.52;1.00;;;23.80;49.00;;;;;;5039453;28;20032;-66
2023/04/30 02:24:46;;;;;;;2.05;0.90;;;23.80;48.90;;;;;;5039793;28;20175;-66
2023/04/30 02:27:12;;;;;;;1.55;0.90;;;23.80;48.90;;;;;;5042872;28;20039;-66
2023/04/30 02:29:38;;;;;;;1.70;0.80;;;23.80;49.00;;;;;;5037953;28;20064;-66
2023/04/30 02:32:04;;;;;;;2.03;1.10;;;23.70;49.00;;;;;;5041629;28;20033;-66
2023/04/30 02:34:29;;;;;;;2.00;0.90;;;23.70;48.90;;;;;;5041596;28;20392;-66
2023/04/30 02:36:55;;;;;;;1.63;0.80;;;23.70;48.90;;;;;;5042786;28;20029;-66
2023/04/30 02:39:20;;;;;;;1.52;0.80;;;23.70;48.90;;;;;;5039640;28;20021;-66
2023/04/30 02:41:46;;;;;;;1.60;0.90;;;23.70;48.90;;;;;;5040217;28;20109;-66
2023/04/30 02:44:12;;;;;;;1.52;0.98;;;23.70;48.90;;;;;;5040807;28;20430;-66
2023/04/30 02:46:37;;;;;;;0.90;0.70;;;23.70;49.00;;;;;;5038403;28;20119;-66
2023/04/30 02:49:03;;;;;;;2.03;0.88;;;23.70;49.00;;;;;;5038925;28;20511;-66
2023/04/30 02:51:28;;;;;;;1.50;0.90;;;23.70;49.00;;;;;;5043465;28;20103;-66
2023/04/30 02:53:54;;;;;;;1.60;0.80;;;23.70;49.00;;;;;;5041223;28;20112;-66
2023/04/30 02:56:20;;;;;;;0.90;0.73;;;23.60;48.90;;;;;;5041418;28;20029;-67
2023/04/30 02:58:46;;;;;;;1.45;0.90;;;23.60;48.90;;;;;;5041836;28;20025;-66
2023/04/30 03:01:12;;;;;;;1.10;0.90;;;23.60;49.00;;;;;;5039502;28;20503;-66
2023/04/30 03:03:38;;;;;;;1.10;0.80;;;23.60;49.00;;;;;;5040831;28;20060;-66
2023/04/30 03:06:04;;;;;;;2.30;1.00;;;23.60;49.00;;;;;;5038804;28;20060;-65
2023/04/30 03:08:29;;;;;;;1.27;0.80;;;23.60;49.00;;;;;;5039447;28;20048;-66
2023/04/30 03:10:55;;;;;;;1.60;0.90;;;23.50;49.00;;;;;;5039098;28;20407;-66
2023/04/30 03:13:21;;;;;;;1.70;0.80;;;23.50;49.00;;;;;;5040876;28;20342;-66
2023/04/30 03:15:46;;;;;;;1.08;0.80;;;23.50;49.00;;;;;;5041444;28;20485;-66
2023/04/30 03:18:12;;;;;;;1.33;0.90;;;23.50;49.00;;;;;;5036948;28;20366;-66
2023/04/30 03:20:38;;;;;;;1.25;0.80;;;23.50;49.00;;;;;;5038902;28;20032;-66
2023/04/30 03:23:03;;;;;;;1.23;0.80;;;23.50;49.00;;;;;;5040057;28;20520;-67
2023/04/30 03:25:29;;;;;;;1.38;0.80;;;23.50;49.00;;;;;;5038799;28;20412;-67
2023/04/30 03:27:54;;;;;;;1.48;0.93;;;23.50;49.00;;;;;;5038245;28;20025;-66
2023/04/30 03:30:20;;;;;;;1.48;0.95;;;23.50;49.00;;;;;;5038568;28;20041;-66
2023/04/30 03:32:46;;;;;;;1.08;0.73;;;23.50;49.00;;;;;;5039839;28;20035;-66
2023/04/30 03:35:11;;;;;;;1.15;0.80;;;23.50;49.00;;;;;;5040633;28;20044;-67
2023/04/30 03:37:37;;;;;;;1.50;0.80;;;23.50;49.00;;;;;;5040182;28;20039;-66
2023/04/30 03:40:03;;;;;;;1.10;0.80;;;23.50;49.00;;;;;;5039031;28;20420;-67
2023/04/30 03:42:29;;;;;;;1.15;0.82;;;23.50;49.00;;;;;;5039802;28;20032;-66
2023/04/30 03:44:54;;;;;;;1.33;0.90;;;23.40;49.00;;;;;;5038843;28;20434;-67
2023/04/30 03:47:20;;;;;;;0.68;0.60;;;23.40;49.00;;;;;;5040009;28;20065;-67
2023/04/30 03:49:47;;;;;;;1.55;1.00;;;23.40;49.00;;;;;;5035420;28;20032;-66
2023/04/30 03:52:13;;;;;;;1.38;0.90;;;23.50;49.00;;;;;;5038199;28;20033;-66
2023/04/30 03:54:38;;;;;;;1.33;0.85;;;23.40;49.00;;;;;;5039856;28;20091;-67
2023/04/30 03:57:06;;;;;;;1.38;0.80;;;23.40;49.00;;;;;;5035922;28;20022;-67
2023/04/30 03:59:32;;;;;;;1.00;0.77;;;23.40;49.00;;;;;;5037921;28;20085;-67
2023/04/30 04:02:00;;;;;;;1.88;0.88;;;23.40;49.00;;;;;;5039659;28;20017;-66
2023/04/30 04:04:25;;;;;;;1.38;0.85;;;23.40;49.00;;;;;;5038810;28;20021;-66
2023/04/30 04:06:51;;;;;;;1.63;0.90;;;23.40;49.00;;;;;;5039409;28;20017;-66
2023/04/30 04:09:17;;;;;;;2.05;0.80;;;23.40;49.00;;;;;;5039851;28;20436;-67
2023/04/30 04:11:42;;;;;;;1.25;0.90;;;23.40;49.00;;;;;;5039467;28;20025;-67
2023/04/30 04:14:08;;;;;;;1.30;0.90;;;23.40;49.00;;;;;;5042013;28;20156;-66
2023/04/30 04:16:33;;;;;;;0.70;0.70;;;23.30;49.00;;;;;;5036553;28;20072;-65
2023/04/30 04:18:59;;;;;;;0.63;0.60;;;23.40;49.00;;;;;;5038097;28;20498;-66
2023/04/30 04:21:25;;;;;;;0.75;0.70;;;23.30;49.00;;;;;;5039079;28;20031;-67
2023/04/30 04:23:51;;;;;;;1.15;0.80;;;23.30;49.00;;;;;;5037864;28;20049;-67
2023/04/30 04:26:18;;;;;;;0.82;0.70;;;23.30;49.00;;;;;;5039339;28;20068;-67
2023/04/30 04:28:44;;;;;;;1.00;0.70;;;23.30;49.00;;;;;;5039371;28;20132;-66
2023/04/30 04:31:10;;;;;;;1.40;0.70;;;23.30;49.00;;;;;;5037737;28;20034;-65
2023/04/30 04:33:35;;;;;;;1.55;0.75;;;23.30;49.00;;;;;;5036956;28;20032;-65
2023/04/30 04:36:02;;;;;;;1.15;0.80;;;23.30;49.00;;;;;;5039964;28;20635;-66
2023/04/30 04:38:28;;;;;;;1.30;0.75;;;23.30;49.00;;;;;;5038615;28;20156;-65
2023/04/30 04:40:55;;;;;;;1.60;0.77;;;23.30;49.00;;;;;;5038376;28;20045;-66
2023/04/30 04:43:21;;;;;;;1.30;0.88;;;23.30;49.00;;;;;;5039329;28;20389;-66
2023/04/30 04:45:47;;;;;;;1.40;0.80;;;23.20;49.00;;;;;;5037683;28;20083;-66
2023/04/30 04:48:13;;;;;;;1.15;0.70;;;23.30;49.00;;;;;;5037457;28;20029;-67
2023/04/30 04:50:39;;;;;;;0.90;0.80;;;23.30;49.00;;;;;;5039783;28;20029;-66
2023/04/30 04:53:05;;;;;;;1.15;0.80;;;23.30;49.00;;;;;;5037029;28;20052;-66
2023/04/30 04:55:31;;;;;;;1.15;0.80;;;23.20;49.00;;;;;;5037278;28;20060;-67
2023/04/30 04:57:56;;;;;;;1.38;0.90;;;23.20;49.00;;;;;;5039926;28;20029;-65
2023/04/30 05:00:22;;;;;;;0.73;0.70;;;23.20;49.00;;;;;;5039695;28;20083;-66
2023/04/30 05:02:48;;;;;;;0.80;0.70;;;23.20;49.00;;;;;;5037572;28;20030;-66
2023/04/30 05:05:14;;;;;;;1.30;0.90;;;23.20;49.00;;;;;;5035566;28;20469;-66
2023/04/30 05:07:40;;;;;;;1.20;0.80;;;23.20;49.00;;;;;;5038353;28;20030;-67
2023/04/30 05:10:06;;;;;;;1.13;0.90;;;23.20;49.00;;;;;;5040712;28;20031;-66
2023/04/30 05:12:32;;;;;;;1.33;0.80;;;23.20;49.00;;;;;;5041263;28;20108;-66
2023/04/30 05:14:58;;;;;;;1.17;0.80;;;23.20;49.00;;;;;;5065396;28;20482;-67
2023/04/30 05:17:24;;;;;;;1.25;0.80;;;23.20;49.00;;;;;;5036810;28;20043;-65
2023/04/30 05:19:50;;;;;;;0.82;0.70;;;23.20;49.00;;;;;;5035968;28;20086;-67
2023/04/30 05:22:16;;;;;;;1.20;0.80;;;23.20;49.00;;;;;;5037184;28;20025;-66
2023/04/30 05:24:42;;;;;;;1.63;0.90;;;23.10;49.00;;;;;;5038760;28;20037;-67
2023/04/30 05:27:08;;;;;;;1.27;0.90;;;23.10;49.00;;;;;;5035064;28;20025;-66
2023/04/30 05:29:33;;;;;;;1.15;0.90;;;23.20;49.00;;;;;;5039614;28;20418;-67
2023/04/30 05:31:59;;;;;;;1.20;0.90;;;23.10;49.00;;;;;;5036675;28;20526;-66
2023/04/30 05:34:24;;;;;;;1.25;0.80;;;23.10;49.00;;;;;;5034134;28;20033;-66
2023/04/30 05:36:50;;;;;;;1.45;0.90;;;23.10;49.00;;;;;;5039036;28;20071;-67
2023/04/30 05:39:16;;;;;;;1.10;0.77;;;23.10;49.00;;;;;;5037217;28;20083;-66
2023/04/30 05:41:41;;;;;;;0.88;0.80;;;23.10;49.00;;;;;;5037334;28;20032;-66
2023/04/30 05:44:07;;;;;;;1.23;0.90;;;23.00;49.00;;;;;;5038220;28;20523;-66
2023/04/30 05:46:34;;;;;;;1.38;0.90;;;23.00;48.90;;;;;;5038204;28;20241;-66
2023/04/30 05:49:00;;;;;;;1.77;0.90;;;23.10;49.00;;;;;;5035952;28;20410;-66
2023/04/30 05:51:26;;;;;;;1.20;0.80;;;23.10;49.00;;;;;;5038504;28;20021;-67
2023/04/30 05:53:52;;;;;;;1.00;0.70;;;23.00;49.00;;;;;;5039778;28;20029;-65
2023/04/30 05:56:18;;;;;;;1.73;0.90;;;23.00;49.00;;;;;;5042725;28;20116;-66
2023/04/30 05:58:43;;;;;;;1.15;0.82;;;23.00;49.00;;;;;;5040985;28;20025;-66
2023/04/30 06:01:09;;;;;;;1.08;0.80;;;23.00;48.90;;;;;;5040977;28;20040;-65
2023/04/30 06:03:36;;;;;;;1.20;0.90;;;23.00;49.00;;;;;;5040675;28;20018;-65
2023/04/30 06:06:01;;;;;;;1.33;0.80;;;23.00;49.00;;;;;;5036140;28;20406;-65
2023/04/30 06:08:28;;;;;;;1.58;0.85;;;23.00;49.00;;;;;;5040984;28;20044;-64
2023/04/30 06:10:54;;;;;;;1.10;0.82;;;23.00;49.00;;;;;;5040228;28;20025;-65
2023/04/30 06:13:20;;;;;;;1.02;0.70;;;23.00;49.00;;;;;;5041044;28;20079;-65
2023/04/30 06:15:45;;;;;;;1.35;0.85;;;23.00;49.00;;;;;;5041037;28;20504;-65
2023/04/30 06:18:13;;;;;;;0.90;0.75;;;23.00;49.00;;;;;;5038820;28;20025;-65
2023/04/30 06:20:38;;;;;;;1.00;0.75;;;23.00;49.00;;;;;;5036078;28;20377;-64
2023/04/30 06:23:04;;;;;;;0.93;0.75;;;23.00;49.00;;;;;;5041556;28;20021;-65
2023/04/30 06:25:30;;;;;;;0.90;0.70;;;23.00;49.00;;;;;;5042072;28;20021;-65
2023/04/30 06:27:55;;;;;;;1.10;0.82;;;23.00;49.00;;;;;;5039805;28;20040;-66
2023/04/30 06:30:21;;;;;;;1.20;0.85;;;23.00;49.00;;;;;;5040554;28;20126;-65
2023/04/30 06:32:47;;;;;;;1.15;0.82;;;23.00;49.10;;;;;;5040455;28;20029;-65
2023/04/30 06:35:12;;;;;;;1.10;0.80;;;23.00;49.00;;;;;;5042209;28;20418;-65
2023/04/30 06:37:38;;;;;;;1.08;0.77;;;23.00;49.10;;;;;;5041448;28;20178;-65
2023/04/30 06:40:05;;;;;;;1.20;1.00;;;23.00;49.10;;;;;;5045347;28;20069;-65
2023/04/30 06:42:34;;;;;;;1.30;1.00;;;23.00;49.00;;;;;;5037824;28;20056;-65
2023/04/30 06:45:05;;;;;;;1.45;0.90;;;23.00;49.00;;;;;;5040362;28;20024;-65
2023/04/30 06:47:33;;;;;;;1.45;1.00;;;23.00;49.10;;;;;;5041095;28;20030;-65
2023/04/30 06:50:00;;;;;;;1.35;0.82;;;23.00;49.10;;;;;;5039836;28;20489;-65
2023/04/30 06:52:25;;;;;;;1.33;0.90;;;22.90;49.00;;;;;;5038926;28;20028;-65
2023/04/30 06:54:51;;;;;;;1.52;0.80;;;23.00;49.10;;;;;;5040809;28;20532;-65
2023/04/30 06:57:17;;;;;;;1.45;1.05;;;23.00;49.10;;;;;;5040757;28;20470;-65
2023/04/30 06:59:43;;;;;;;1.15;0.90;;;23.00;49.10;;;;;;5040629;28;20021;-66
2023/04/30 07:02:08;;;;;;;0.90;0.80;;;22.90;49.00;;;;;;5040952;28;20021;-65
2023/04/30 07:04:34;;;;;;;1.58;1.05;;;23.00;49.10;;;;;;5037097;28;20394;-65
2023/04/30 07:07:01;;;;;;;1.45;0.90;;;22.90;49.00;;;;;;5038548;28;20032;-65
2023/04/30 07:09:27;;;;;;;1.63;1.10;;;22.90;49.00;;;;;;5041206;28;20026;-64
2023/04/30 07:11:53;;;;;;;1.70;1.02;;;22.90;49.00;;;;;;5039099;28;20107;-65
2023/04/30 07:14:20;;;;;;;1.30;0.90;;;22.90;49.00;;;;;;5038363;28;20463;-65
2023/04/30 07:16:45;;;;;;;1.17;0.90;;;22.90;49.00;;;;;;5041345;28;20087;-65
2023/04/30 07:19:11;;;;;;;1.25;0.93;;;22.90;49.00;;;;;;5041929;28;20029;-65
2023/04/30 07:21:37;;;;;;;1.50;1.10;;;22.90;49.00;;;;;;5038990;28;20036;-65
2023/04/30 07:24:02;;;;;;;1.40;0.90;;;22.90;49.00;;;;;;5038588;28;20428;-65
2023/04/30 07:26:28;;;;;;;1.20;0.80;;;22.90;49.00;;;;;;5041021;28;20039;-65
2023/04/30 07:28:54;;;;;;;1.02;0.85;;;22.90;49.00;;;;;;5039773;28;20049;-65
2023/04/30 07:31:19;;;;;;;1.33;0.95;;;22.90;49.00;;;;;;5038285;28;20029;-65
2023/04/30 07:33:45;;;;;;;1.55;1.20;;;22.90;49.60;;;;;;5039360;28;20043;-67
2023/04/30 07:36:11;;;;;;;1.50;0.95;;;22.90;49.00;;;;;;5038718;28;20029;-65
2023/04/30 07:38:36;;;;;;;1.55;1.10;;;22.90;49.10;;;;;;5038839;28;20025;-65
2023/04/30 07:41:03;;;;;;;1.23;0.90;;;22.90;49.00;;;;;;5042206;28;20044;-65
2023/04/30 07:43:29;;;;;;;1.83;0.90;;;22.90;49.00;;;;;;5038651;28;20044;-65
2023/04/30 07:45:54;;;;;;;1.73;1.00;;;22.90;49.10;;;;;;5040537;28;20034;-65
2023/04/30 07:48:21;;;;;;;1.40;1.00;;;22.90;49.10;;;;;;5040924;28;20060;-65
2023/04/30 07:50:47;;;;;;;1.15;0.90;;;22.90;49.00;;;;;;5039691;28;20025;-65
2023/04/30 07:53:12;;;;;;;2.10;1.10;;;22.90;49.10;;;;;;5039973;28;20040;-65
2023/04/30 07:55:38;;;;;;;1.60;1.10;;;22.90;49.10;;;;;;5041425;28;20025;-65
2023/04/30 07:58:04;;;;;;;1.55;1.00;;;22.90;49.10;;;;;;5046100;28;20029;-66
2023/04/30 08:00:30;;;;;;;2.00;1.08;;;22.90;49.10;;;;;;5039587;28;20112;-65
2023/04/30 08:02:58;;;;;;;1.55;0.95;;;22.90;49.10;;;;;;5035836;28;20095;-65
2023/04/30 08:05:23;;;;;;;1.08;0.90;;;22.90;49.10;;;;;;5037035;28;20119;-65
2023/04/30 08:07:49;;;;;;;1.45;1.00;;;22.90;49.10;;;;;;5040789;28;20100;-65
2023/04/30 08:10:15;;;;;;;1.27;0.93;;;22.90;49.10;;;;;;5039344;28;20116;-65
2023/04/30 08:12:40;;;;;;;1.35;1.00;;;22.90;49.10;;;;;;5038684;28;20578;-64
2023/04/30 08:15:06;;;;;;;1.67;1.10;;;22.90;49.10;;;;;;5039065;28;20501;-65
2023/04/30 08:17:33;;;;;;;1.50;0.90;;;22.90;49.10;;;;;;5038663;28;20029;-65
2023/04/30 08:20:00;;;;;;;1.30;0.95;;;22.90;49.10;;;;;;5036138;28;20065;-65
2023/04/30 08:22:25;;;;;;;1.40;1.05;;;22.90;49.10;;;;;;5041071;28;20092;-65
2023/04/30 08:24:51;;;;;;;1.30;1.08;;;22.90;49.10;;;;;;5036673;28;20132;-65
2023/04/30 08:27:17;;;;;;;2.13;1.00;;;22.90;49.10;;;;;;5038113;28;20034;-65
2023/04/30 08:29:42;;;;;;;1.20;0.90;;;22.90;49.10;;;;;;5037892;28;20045;-65
2023/04/30 08:32:08;;;;;;;1.40;1.00;;;22.90;49.10;;;;;;5044541;28;20116;-65
2023/04/30 08:34:33;;;;;;;1.30;1.00;;;22.90;49.10;;;;;;5036939;28;20063;-65
2023/04/30 08:37:00;;;;;;;1.17;0.88;;;22.90;49.20;;;;;;5038698;28;20507;-65
2023/04/30 08:39:25;;;;;;;1.60;1.00;;;22.90;49.10;;;;;;5039418;28;20029;-65
2023/04/30 08:41:55;;;;;;;1.90;1.10;;;22.90;49.10;;;;;;5041187;28;20044;-65
2023/04/30 08:44:22;;;;;;;1.70;1.05;;;22.90;49.10;;;;;;5039493;28;20025;-65
2023/04/30 08:46:53;;;;;;;1.42;1.10;;;22.90;49.10;;;;;;5035547;28;20029;-65
2023/04/30 08:49:22;;;;;;;1.60;1.20;;;22.90;49.10;;;;;;5038428;28;20335;-65
2023/04/30 08:51:48;;;;;;;1.23;0.90;;;22.90;49.10;;;;;;5036610;28;20033;-65
2023/04/30 08:54:16;;;;;;;1.63;1.15;;;22.90;49.00;;;;;;5040382;28;20064;-66
2023/04/30 08:56:42;;;;;;;1.73;1.17;;;22.90;49.00;;;;;;5039885;28;20017;-65
2023/04/30 08:59:07;;;;;;;1.40;1.00;;;22.90;49.00;;;;;;5034471;28;20036;-65
2023/04/30 09:01:34;;;;;;;1.27;1.05;;;22.90;49.00;;;;;;5036623;28;20045;-65
2023/04/30 09:04:02;;;;;;;1.90;1.00;;;22.90;49.00;;;;;;5037182;28;20425;-65
2023/04/30 09:06:27;;;;;;;1.33;1.10;;;22.90;49.00;;;;;;5036202;28;20395;-65
2023/04/30 09:08:53;;;;;;;1.10;1.00;;;22.90;49.00;;;;;;5042886;28;20074;-66
2023/04/30 09:11:29;;;;;;;1.40;1.00;;;22.80;49.00;;;;;;5037557;28;20123;-65
2023/04/30 09:13:59;;;;;;;1.40;1.10;;;22.80;49.00;;;;;;5039768;28;20034;-65
2023/04/30 09:16:31;;;;;;;1.63;1.08;;;22.90;49.00;;;;;;5039608;28;20034;-65
2023/04/30 09:18:57;;;;;;;1.35;1.00;;;22.90;49.00;;;;;;5036417;28;20068;-66
2023/04/30 09:21:36;;;;;;;1.70;1.20;;;22.90;49.00;;;;;;5032808;28;20033;-65
2023/04/30 09:24:05;;;;;;;1.95;1.20;;;22.80;48.90;;;;;;5036773;28;20342;-65
2023/04/30 09:26:37;;;;;;;1.40;1.10;;;22.90;49.00;;;;;;5037106;28;20040;-66
2023/04/30 09:29:07;;;;;;;1.63;1.10;;;22.90;49.00;;;;;;5041967;28;20044;-66
2023/04/30 09:31:37;;;;;;;1.63;1.08;;;22.80;49.00;;;;;;5036264;28;20775;-65
2023/04/30 09:34:03;;;;;;;1.67;1.27;;;22.90;49.00;;;;;;5039099;28;20086;-66
2023/04/30 09:36:30;;;;;;;1.52;1.00;;;22.90;49.00;;;;;;5036816;28;20086;-66
2023/04/30 09:39:04;;;;;;;1.65;1.10;;;22.90;49.00;;;;;;5036321;28;20026;-65
2023/04/30 09:41:30;;;;;;;1.00;0.90;;;22.90;49.00;;;;;;5038029;28;20547;-66
2023/04/30 09:43:56;;;;;;;1.33;1.00;;;22.80;49.00;;;;;;5036409;28;20025;-65
2023/04/30 09:46:33;;;;;;;1.67;1.20;;;22.80;49.00;;;;;;5038160;28;20064;-66
2023/04/30 09:49:01;;;;;;;1.35;1.08;;;22.80;49.00;;;;;;5039107;28;20089;-65
2023/04/30 09:51:28;;;;;;;1.92;1.20;;;22.80;49.00;;;;;;5034375;28;20388;-66
2023/04/30 09:53:53;;;;;;;1.80;1.10;;;22.80;49.00;;;;;;5033219;28;20044;-66
2023/04/30 09:56:25;;;;;;;1.27;1.08;;;22.80;49.00;;;;;;5037425;28;20025;-66
2023/04/30 09:58:55;;;;;;;1.70;1.10;;;22.80;49.00;;;;;;5034359;28;20472;-66
2023/04/30 10:01:25;;;;;;;1.45;1.10;;;22.80;49.00;;;;;;5037354;28;20733;-65
2023/04/30 10:03:52;;;;;;;1.52;1.10;;;22.80;49.00;;;;;;5035583;28;20534;-66
2023/04/30 10:06:19;;;;;;;1.40;1.00;;;22.80;49.00;;;;;;5032975;28;20033;-66
2023/04/30 10:08:51;;;;;;;2.38;1.17;;;22.80;49.00;;;;;;5038887;28;20136;-66
2023/04/30 10:11:21;;;;;;;1.67;1.10;;;22.90;49.00;;;;;;5039217;28;20378;-65
2023/04/30 10:14:09;;;;;;;1.73;1.02;;;22.80;49.00;;;;;;5040559;28;20037;-67
2023/04/30 10:17:02;;;;;;;1.33;1.10;;;22.80;49.00;;;;;;5035723;28;20364;-66
2023/04/30 10:19:35;;;;;;;1.35;1.10;;;22.80;49.00;;;;;;5038212;28;20076;-66
2023/04/30 10:22:01;;;;;;;1.58;1.15;;;22.80;49.00;;;;;;5033712;28;20076;-66
2023/04/30 10:24:27;;;;;;;1.42;1.20;;;22.80;49.00;;;;;;5036328;28;20390;-66
2023/04/30 10:26:53;;;;;;;1.70;1.10;;;22.80;49.00;;;;;;5040012;28;20040;-66
2023/04/30 10:29:19;;;;;;;2.00;1.00;;;22.80;49.00;;;;;;5039465;28;20036;-66
2023/04/30 10:31:47;;;;;;;2.10;1.10;;;22.80;49.00;;;;;;5037419;28;20335;-66
2023/04/30 10:34:16;;;;;;;1.25;1.02;;;22.80;49.00;;;;;;5035506;28;20057;-66
2023/04/30 10:36:43;;;;;;;2.30;1.10;;;22.80;49.00;;;;;;5035561;28;20028;-66
2023/04/30 10:39:11;;;;;;;1.70;1.10;;;22.80;49.10;;;;;;5041740;28;20021;-66
2023/04/30 10:41:38;;;;;;;1.58;1.00;;;22.80;49.10;;;;;;5039291;28;20070;-67
2023/04/30 10:44:06;;;;;;;1.45;1.00;;;22.80;49.10;;;;;;5041678;28;20382;-66
2023/04/30 10:46:34;;;;;;;1.50;1.02;;;22.80;49.10;;;;;;5036891;28;20083;-66
2023/04/30 10:49:00;;;;;;;2.00;1.10;;;22.80;49.10;;;;;;5040653;28;20108;-66
2023/04/30 10:51:47;;;;;;;1.95;1.25;;;22.80;49.10;;;;;;5038715;28;20120;-66
2023/04/30 10:54:18;;;;;;;1.55;1.08;;;22.80;49.10;;;;;;5042756;28;20059;-66
2023/04/30 10:56:45;;;;;;;1.30;0.90;;;22.80;49.10;;;;;;5042877;28;20038;-66
2023/04/30 10:59:11;;;;;;;2.42;1.23;;;22.80;49.10;;;;;;5038364;28;20048;-66
2023/04/30 11:01:57;;;;;;;1.67;1.23;;;22.80;49.10;;;;;;5043730;28;20021;-66
2023/04/30 11:04:24;;;;;;;1.33;1.00;;;22.80;49.20;;;;;;5042313;28;20029;-67
2023/04/30 11:06:49;;;;;;;1.30;1.10;;;22.80;49.10;;;;;;5039918;28;20381;-66
2023/04/30 11:09:15;;;;;;;1.58;1.10;;;22.80;49.20;;;;;;5042045;28;20111;-66
2023/04/30 11:11:43;;;;;;;1.23;1.00;;;22.80;49.20;;;;;;5040818;28;20021;-66
2023/04/30 11:14:11;;;;;;;1.20;0.90;;;22.80;49.20;;;;;;5040530;28;20538;-67
2023/04/30 11:16:36;;;;;;;1.92;1.10;;;22.80;49.20;;;;;;5041096;28;20469;-69
2023/04/30 11:19:13;;;;;;;2.00;1.15;;;22.80;49.30;;;;;;5040702;28;20025;-67
2023/04/30 11:22:01;;;;;;;1.30;0.93;;;22.80;49.30;;;;;;5052572;28;20064;-67
2023/04/30 11:24:52;;;;;;;1.58;0.90;;;22.80;49.30;;;;;;5036354;28;20591;-67
2023/04/30 11:27:28;;;;;;;1.60;1.10;;;22.80;49.30;;;;;;5041482;28;20354;-67
2023/04/30 11:29:55;;;;;;;1.20;1.00;;;22.80;49.30;;;;;;5039157;28;20045;-67
2023/04/30 11:32:23;;;;;;;1.60;1.20;;;22.80;49.30;;;;;;5039553;28;20033;-66
2023/04/30 11:34:49;;;;;;;1.95;1.00;;;22.80;49.30;;;;;;5038668;28;20366;-67
2023/04/30 11:37:20;;;;;;;1.30;1.00;;;22.80;49.30;;;;;;5036356;28;20366;-68
2023/04/30 11:39:47;;;;;;;2.45;1.10;;;22.80;49.30;;;;;;5040047;28;20148;-67
2023/04/30 11:42:20;;;;;;;1.67;1.10;;;22.80;49.30;;;;;;5040972;28;20438;-67
2023/04/30 11:44:46;;;;;;;1.35;1.10;;;22.80;49.30;;;;;;5041705;28;20048;-68
2023/04/30 11:47:13;;;;;;;1.73;1.00;;;22.80;49.30;;;;;;5043428;28;20365;-66
2023/04/30 11:49:39;;;;;;;1.27;1.00;;;22.80;49.30;;;;;;5040071;28;20357;-67
2023/04/30 11:52:05;;;;;;;2.05;0.90;;;22.80;49.30;;;;;;5039147;28;20037;-67
2023/04/30 11:54:31;;;;;;;1.92;1.10;;;22.80;49.30;;;;;;5039438;28;20037;-68
2023/04/30 11:57:02;;;;;;;1.20;0.95;;;22.80;49.30;;;;;;5039553;28;20481;-68
2023/04/30 11:59:30;;;;;;;1.58;1.00;;;22.90;49.40;;;;;;5038727;28;20029;-68
2023/04/30 12:01:56;;;;;;;1.40;1.10;;;22.80;49.30;;;;;;5040189;28;20155;-68
2023/04/30 12:04:21;;;;;;;1.30;0.95;;;22.80;49.30;;;;;;5038135;28;20113;-69
2023/04/30 12:06:47;;;;;;;1.42;0.90;;;22.80;49.30;;;;;;5038000;28;20100;-68
2023/04/30 12:09:13;;;;;;;1.60;1.20;;;22.80;49.30;;;;;;5038289;28;20108;-69
2023/04/30 12:11:39;;;;;;;1.50;1.00;;;22.80;49.30;;;;;;5041168;28;20037;-67
2023/04/30 12:14:06;;;;;;;1.50;1.10;;;22.80;49.30;;;;;;5038018;28;20389;-68
2023/04/30 12:16:44;;;;;;;1.45;1.02;;;22.80;49.30;;;;;;5039563;28;20155;-68
2023/04/30 12:19:11;;;;;;;1.63;1.13;;;22.80;49.30;;;;;;5037076;28;20420;-68
2023/04/30 12:21:37;;;;;;;1.25;0.90;;;22.90;49.40;;;;;;5040695;28;20484;-68
2023/04/30 12:24:03;;;;;;;1.70;1.10;;;22.80;49.30;;;;;;5037361;28;20559;-68
2023/04/30 12:26:37;;;;;;;1.40;1.10;;;22.90;49.40;;;;;;5038528;28;20476;-68
2023/04/30 12:29:15;;;;;;;1.30;1.00;;;22.90;49.40;;;;;;5040113;28;20057;-69
2023/04/30 12:31:41;;;;;;;1.85;1.08;;;22.90;49.40;;;;;;5038232;28;20672;-68
2023/04/30 12:34:09;;;;;;;2.20;1.10;;;22.90;49.40;;;;;;5038445;28;20028;-67
2023/04/30 12:36:37;;;;;;;1.80;1.10;;;22.90;49.40;;;;;;5037821;28;20025;-67
2023/04/30 12:39:17;;;;;;;1.48;0.90;;;22.90;49.40;;;;;;5037790;28;20480;-67
2023/04/30 12:41:47;;;;;;;1.27;1.00;;;22.80;49.40;;;;;;5038750;28;20025;-67
2023/04/30 12:44:24;;;;;;;1.27;1.00;;;22.80;49.40;;;;;;5039930;28;20029;-67
2023/04/30 12:46:54;;;;;;;2.00;1.20;;;22.90;49.50;;;;;;5039328;28;20018;-68
2023/04/30 12:49:29;;;;;;;1.92;1.30;;;22.80;49.50;;;;;;5040007;28;20032;-67
2023/04/30 12:52:07;;;;;;;1.10;0.90;;;22.90;49.60;;;;;;5039424;28;20032;-68